Time,TemperatureF,DewpointF,PressureIn,WindDirection,WindDirectionDegrees,WindSpeedMPH,WindSpeedGustMPH,Humidity,HourlyPrecipIn,Conditions,Clouds,dailyrainin,SoftwareType,DateUTC
2013-01-18 00:04:00,39.5,31.2,30.49,North,355,0.0,3.0,72,0.00,,,0.00,Wunderground v.1.15,2013-01-18 06:04:00,
2013-01-18 00:09:00,39.3,31.0,30.49,North,355,0.0,3.0,72,0.00,,,0.00,Wunderground v.1.15,2013-01-18 06:09:00,
2013-01-18 00:19:00,38.9,31.0,30.50,North,355,0.0,3.0,73,0.00,,,0.00,Wunderground v.1.15,2013-01-18 06:19:00,
2013-01-18 00:24:00,38.7,31.1,30.49,North,355,0.0,3.0,74,0.00,,,0.00,Wunderground v.1.15,2013-01-18 06:24:00,
2013-01-18 00:29:00,38.6,31.4,30.50,North,355,0.0,3.0,75,0.00,,,0.00,Wunderground v.1.15,2013-01-18 06:29:00,
2013-01-18 00:34:00,38.5,31.3,30.50,North,355,0.0,3.0,75,0.00,,,0.00,Wunderground v.1.15,2013-01-18 06:34:00,
2013-01-18 00:44:00,38.3,31.4,30.50,North,355,0.0,3.0,76,0.00,,,0.00,Wunderground v.1.15,2013-01-18 06:44:00,
2013-01-18 00:49:00,38.2,31.3,30.50,North,355,0.0,3.0,76,0.00,,,0.00,Wunderground v.1.15,2013-01-18 06:49:00,
2013-01-18 00:54:00,38.0,31.1,30.50,North,355,0.0,3.0,76,0.00,,,0.00,Wunderground v.1.15,2013-01-18 06:54:00,
2013-01-18 00:59:00,38.0,31.4,30.50,North,355,0.0,3.0,77,0.00,,,0.00,Wunderground v.1.15,2013-01-18 06:59:00,
2013-01-18 01:09:00,37.8,31.2,30.50,North,355,0.0,3.0,77,0.00,,,0.00,Wunderground v.1.15,2013-01-18 07:09:00,
2013-01-18 01:14:00,37.7,31.5,30.50,North,355,0.0,3.0,78,0.00,,,0.00,Wunderground v.1.15,2013-01-18 07:14:00,
2013-01-18 01:19:00,37.5,31.3,30.50,North,355,0.0,3.0,78,0.00,,,0.00,Wunderground v.1.15,2013-01-18 07:19:00,
2013-01-18 01:24:00,37.4,31.2,30.50,North,355,0.0,3.0,78,0.00,,,0.00,Wunderground v.1.15,2013-01-18 07:24:00,
2013-01-18 01:29:00,37.2,31.0,30.50,North,355,0.0,3.0,78,0.00,,,0.00,Wunderground v.1.15,2013-01-18 07:29:00,
2013-01-18 01:39:00,36.9,30.7,30.50,North,355,0.0,3.0,78,0.00,,,0.00,Wunderground v.1.15,2013-01-18 07:39:00,
2013-01-18 01:44:00,36.6,30.4,30.50,North,355,0.0,3.0,78,0.00,,,0.00,Wunderground v.1.15,2013-01-18 07:44:00,
2013-01-18 01:54:00,36.4,30.5,30.50,North,355,0.0,3.0,79,0.00,,,0.00,Wunderground v.1.15,2013-01-18 07:54:00,
2013-01-18 01:59:00,36.3,30.7,30.50,North,355,0.0,3.0,80,0.00,,,0.00,Wunderground v.1.15,2013-01-18 07:59:00,
2013-01-18 02:04:00,36.2,30.6,30.51,North,355,0.0,3.0,80,0.00,,,0.00,Wunderground v.1.15,2013-01-18 08:04:00,
2013-01-18 02:09:00,36.2,30.6,30.51,North,355,0.0,3.0,80,0.00,,,0.00,Wunderground v.1.15,2013-01-18 08:09:00,
2013-01-18 02:19:00,36.0,30.7,30.51,North,355,0.0,3.0,81,0.00,,,0.00,Wunderground v.1.15,2013-01-18 08:19:00,
2013-01-18 02:24:00,35.9,30.6,30.51,North,355,0.0,3.0,81,0.00,,,0.00,Wunderground v.1.15,2013-01-18 08:24:00,
2013-01-18 02:29:00,35.7,30.4,30.51,North,355,0.0,3.0,81,0.00,,,0.00,Wunderground v.1.15,2013-01-18 08:29:00,
2013-01-18 02:34:00,35.6,30.6,30.51,North,355,0.0,3.0,82,0.00,,,0.00,Wunderground v.1.15,2013-01-18 08:34:00,
2013-01-18 02:44:00,35.2,30.3,30.51,North,355,0.0,3.0,82,0.00,,,0.00,Wunderground v.1.15,2013-01-18 08:44:00,
2013-01-18 02:49:00,35.1,30.2,30.50,North,355,0.0,3.0,82,0.00,,,0.00,Wunderground v.1.15,2013-01-18 08:49:00,
2013-01-18 02:54:00,35.0,30.1,30.50,North,355,0.0,3.0,82,0.00,,,0.00,Wunderground v.1.15,2013-01-18 08:54:00,
2013-01-18 02:59:00,34.8,29.9,30.50,North,355,0.0,3.0,82,0.00,,,0.00,Wunderground v.1.15,2013-01-18 08:59:00,
2013-01-18 03:09:00,34.6,30.0,30.50,North,355,0.0,3.0,83,0.00,,,0.00,Wunderground v.1.15,2013-01-18 09:09:00,
2013-01-18 03:14:00,34.5,29.9,30.50,North,355,0.0,3.0,83,0.00,,,0.00,Wunderground v.1.15,2013-01-18 09:14:00,
2013-01-18 03:24:00,34.3,30.0,30.50,North,355,0.0,3.0,84,0.00,,,0.00,Wunderground v.1.15,2013-01-18 09:24:00,
2013-01-18 03:29:00,34.2,29.9,30.49,North,355,0.0,3.0,84,0.00,,,0.00,Wunderground v.1.15,2013-01-18 09:29:00,
2013-01-18 03:34:00,34.1,29.8,30.49,North,355,0.0,3.0,84,0.00,,,0.00,Wunderground v.1.15,2013-01-18 09:34:00,
2013-01-18 03:39:00,34.1,29.8,30.49,North,355,0.0,3.0,84,0.00,,,0.00,Wunderground v.1.15,2013-01-18 09:39:00,
2013-01-18 03:49:00,33.9,29.6,30.50,North,355,0.0,3.0,84,0.00,,,0.00,Wunderground v.1.15,2013-01-18 09:49:00,
2013-01-18 03:54:00,33.9,29.9,30.49,North,355,0.0,3.0,85,0.00,,,0.00,Wunderground v.1.15,2013-01-18 09:54:00,
2013-01-18 03:59:00,33.8,29.8,30.49,North,355,0.0,3.0,85,0.00,,,0.00,Wunderground v.1.15,2013-01-18 09:59:00,
2013-01-18 04:09:00,33.6,29.6,30.49,North,355,0.0,3.0,85,0.00,,,0.00,Wunderground v.1.15,2013-01-18 10:09:00,
2013-01-18 04:14:00,33.5,29.5,30.49,North,355,0.0,3.0,85,0.00,,,0.00,Wunderground v.1.15,2013-01-18 10:14:00,
2013-01-18 04:19:00,33.4,29.4,30.49,North,355,0.0,3.0,85,0.00,,,0.00,Wunderground v.1.15,2013-01-18 10:19:00,
2013-01-18 04:24:00,33.4,29.4,30.49,North,355,0.0,3.0,85,0.00,,,0.00,Wunderground v.1.15,2013-01-18 10:24:00,
2013-01-18 04:34:00,33.5,29.8,30.49,North,355,0.0,3.0,86,0.00,,,0.00,Wunderground v.1.15,2013-01-18 10:34:00,
2013-01-18 04:44:00,33.5,30.0,30.48,North,355,0.0,3.0,87,0.00,,,0.00,Wunderground v.1.15,2013-01-18 10:44:00,
2013-01-18 04:49:00,33.5,30.0,30.48,North,355,0.0,3.0,87,0.00,,,0.00,Wunderground v.1.15,2013-01-18 10:49:00,
2013-01-18 04:54:00,33.4,29.9,30.48,North,355,0.0,3.0,87,0.00,,,0.00,Wunderground v.1.15,2013-01-18 10:54:00,
2013-01-18 05:04:00,33.2,29.8,30.48,North,355,0.0,3.0,87,0.00,,,0.00,Wunderground v.1.15,2013-01-18 11:04:00,
2013-01-18 05:09:00,33.0,29.6,30.48,North,355,0.0,3.0,87,0.00,,,0.00,Wunderground v.1.15,2013-01-18 11:09:00,
2013-01-18 05:14:00,32.9,29.5,30.48,North,355,0.0,3.0,87,0.00,,,0.00,Wunderground v.1.15,2013-01-18 11:14:00,
2013-01-18 05:24:00,32.5,29.1,30.48,North,355,0.0,3.0,87,0.00,,,0.00,Wunderground v.1.15,2013-01-18 11:24:00,
2013-01-18 05:29:00,32.3,28.9,30.48,North,355,0.0,3.0,87,0.00,,,0.00,Wunderground v.1.15,2013-01-18 11:29:00,
2013-01-18 05:34:00,32.1,28.7,30.48,North,355,0.0,3.0,87,0.00,,,0.00,Wunderground v.1.15,2013-01-18 11:34:00,
2013-01-18 05:39:00,32.1,28.7,30.48,North,355,0.0,3.0,87,0.00,,,0.00,Wunderground v.1.15,2013-01-18 11:39:00,
2013-01-18 05:44:00,32.0,28.6,30.48,North,355,0.0,3.0,87,0.00,,,0.00,Wunderground v.1.15,2013-01-18 11:44:00,
2013-01-18 05:54:00,31.8,28.4,30.48,North,355,0.0,3.0,87,0.00,,,0.00,Wunderground v.1.15,2013-01-18 11:54:00,
2013-01-18 05:59:00,31.9,28.8,30.48,North,355,0.0,3.0,88,0.00,,,0.00,Wunderground v.1.15,2013-01-18 11:59:00,
2013-01-18 06:04:00,31.9,28.8,30.48,North,355,0.0,3.0,88,0.00,,,0.00,Wunderground v.1.15,2013-01-18 12:04:00,
2013-01-18 06:09:00,31.9,28.8,30.48,North,355,0.0,3.0,88,0.00,,,0.00,Wunderground v.1.15,2013-01-18 12:09:00,
2013-01-18 06:14:00,31.9,28.8,30.48,North,355,0.0,3.0,88,0.00,,,0.00,Wunderground v.1.15,2013-01-18 12:14:00,
2013-01-18 06:19:00,32.0,28.8,30.48,North,355,0.0,3.0,88,0.00,,,0.00,Wunderground v.1.15,2013-01-18 12:19:00,
2013-01-18 06:29:00,32.0,29.1,30.48,North,355,0.0,3.0,89,0.00,,,0.00,Wunderground v.1.15,2013-01-18 12:29:00,
2013-01-18 06:34:00,32.0,29.1,30.48,North,355,0.0,3.0,89,0.00,,,0.00,Wunderground v.1.15,2013-01-18 12:34:00,
2013-01-18 06:39:00,31.9,29.0,30.48,North,355,0.0,3.0,89,0.00,,,0.00,Wunderground v.1.15,2013-01-18 12:39:00,
2013-01-18 06:44:00,31.9,29.0,30.48,North,355,0.0,3.0,89,0.00,,,0.00,Wunderground v.1.15,2013-01-18 12:44:00,
2013-01-18 06:49:00,31.9,29.0,30.48,North,355,0.0,3.0,89,0.00,,,0.00,Wunderground v.1.15,2013-01-18 12:49:00,
2013-01-18 06:59:00,31.8,28.9,30.48,North,355,0.0,3.0,89,0.00,,,0.00,Wunderground v.1.15,2013-01-18 12:59:00,
2013-01-18 07:04:00,31.7,28.8,30.48,North,355,0.0,3.0,89,0.00,,,0.00,Wunderground v.1.15,2013-01-18 13:04:00,
2013-01-18 07:09:00,31.7,28.8,30.48,North,355,0.0,3.0,89,0.00,,,0.00,Wunderground v.1.15,2013-01-18 13:09:00,
2013-01-18 07:19:00,31.5,28.6,30.47,North,355,0.0,3.0,89,0.00,,,0.00,Wunderground v.1.15,2013-01-18 13:19:00,
2013-01-18 07:24:00,31.4,28.5,30.47,North,355,0.0,3.0,89,0.00,,,0.00,Wunderground v.1.15,2013-01-18 13:24:00,
2013-01-18 07:29:00,31.4,28.5,30.47,North,355,0.0,3.0,89,0.00,,,0.00,Wunderground v.1.15,2013-01-18 13:29:00,
2013-01-18 07:39:00,31.4,28.5,30.47,North,355,0.0,3.0,89,0.00,,,0.00,Wunderground v.1.15,2013-01-18 13:39:00,
2013-01-18 07:44:00,31.3,28.4,30.47,North,355,0.0,3.0,89,0.00,,,0.00,Wunderground v.1.15,2013-01-18 13:44:00,
2013-01-18 07:54:00,31.4,28.5,30.48,North,355,0.0,3.0,89,0.00,,,0.00,Wunderground v.1.15,2013-01-18 13:54:00,
2013-01-18 07:59:00,31.5,28.6,30.48,North,355,0.0,3.0,89,0.00,,,0.00,Wunderground v.1.15,2013-01-18 13:59:00,
2013-01-18 08:04:00,31.8,29.2,30.48,North,355,0.0,3.0,90,0.00,,,0.00,Wunderground v.1.15,2013-01-18 14:04:00,
2013-01-18 08:19:00,33.6,31.3,30.48,North,355,0.0,3.0,91,0.00,,,0.00,Wunderground v.1.15,2013-01-18 14:19:00,
2013-01-18 08:24:00,34.2,31.6,30.48,North,355,0.0,3.0,90,0.00,,,0.00,Wunderground v.1.15,2013-01-18 14:24:00,
2013-01-18 08:29:00,34.8,32.2,30.48,North,355,0.0,3.0,90,0.00,,,0.00,Wunderground v.1.15,2013-01-18 14:29:00,
2013-01-18 08:44:00,37.0,33.8,30.48,North,355,0.0,3.0,88,0.00,,,0.00,Wunderground v.1.15,2013-01-18 14:44:00,
2013-01-18 08:49:00,37.7,33.6,30.48,North,355,0.0,3.0,85,0.00,,,0.00,Wunderground v.1.15,2013-01-18 14:49:00,
2013-01-18 08:54:00,38.3,33.6,30.48,North,355,0.0,3.0,83,0.00,,,0.00,Wunderground v.1.15,2013-01-18 14:54:00,
2013-01-18 08:59:00,38.9,33.9,30.48,North,355,0.0,3.0,82,0.00,,,0.00,Wunderground v.1.15,2013-01-18 14:59:00,
2013-01-18 09:09:00,40.0,34.0,30.48,North,355,1.0,1.0,79,0.00,,,0.00,Wunderground v.1.15,2013-01-18 15:09:00,
2013-01-18 09:19:00,41.3,34.3,30.48,North,355,1.0,1.0,76,0.00,,,0.00,Wunderground v.1.15,2013-01-18 15:19:00,
2013-01-18 09:24:00,42.0,34.6,30.49,North,355,0.0,3.0,75,0.00,,,0.00,Wunderground v.1.15,2013-01-18 15:24:00,
2013-01-18 09:29:00,42.9,34.8,30.49,North,355,0.0,3.0,73,0.00,,,0.00,Wunderground v.1.15,2013-01-18 15:29:00,
2013-01-18 09:39:00,44.9,35.3,30.49,ENE,64,1.0,3.0,69,0.00,,,0.00,Wunderground v.1.15,2013-01-18 15:39:00,
2013-01-18 09:49:00,47.0,35.4,30.49,ESE,119,2.0,2.0,64,0.00,,,0.00,Wunderground v.1.15,2013-01-18 15:49:00,
2013-01-18 09:59:00,48.7,35.4,30.49,SSE,164,4.0,5.0,60,0.00,,,0.00,Wunderground v.1.15,2013-01-18 15:59:00,
2013-01-18 10:04:00,49.3,35.1,30.49,SE,139,5.0,7.0,58,0.00,,,0.00,Wunderground v.1.15,2013-01-18 16:04:00,
2013-01-18 10:09:00,49.5,35.3,30.49,SSE,148,7.0,7.0,58,0.00,,,0.00,Wunderground v.1.15,2013-01-18 16:09:00,
2013-01-18 10:14:00,50.0,35.4,30.49,SE,140,8.0,10.0,57,0.00,,,0.00,Wunderground v.1.15,2013-01-18 16:14:00,
2013-01-18 10:24:00,50.9,35.7,30.48,SSE,154,7.0,8.0,56,0.00,,,0.00,Wunderground v.1.15,2013-01-18 16:24:00,
2013-01-18 10:29:00,51.7,36.0,30.48,SSE,154,7.0,10.0,55,0.00,,,0.00,Wunderground v.1.15,2013-01-18 16:29:00,
2013-01-18 10:34:00,52.6,36.4,30.48,SE,132,5.0,14.0,54,0.00,,,0.00,Wunderground v.1.15,2013-01-18 16:34:00,
2013-01-18 10:39:00,52.8,35.6,30.48,SSE,163,7.0,7.0,52,0.00,,,0.00,Wunderground v.1.15,2013-01-18 16:39:00,
2013-01-18 10:49:00,53.4,35.7,30.48,SSE,159,7.0,7.0,51,0.00,,,0.00,Wunderground v.1.15,2013-01-18 16:49:00,
2013-01-18 10:54:00,53.9,35.7,30.48,SSE,167,7.0,8.0,50,0.00,,,0.00,Wunderground v.1.15,2013-01-18 16:54:00,
2013-01-18 10:59:00,54.3,36.0,30.47,South,172,6.0,6.0,50,0.00,,,0.00,Wunderground v.1.15,2013-01-18 16:59:00,
2013-01-18 11:09:00,54.9,35.6,30.47,SSE,163,8.0,8.0,48,0.00,,,0.00,Wunderground v.1.15,2013-01-18 17:09:00,
2013-01-18 11:24:00,55.4,34.9,30.46,SSE,165,8.0,8.0,46,0.00,,,0.00,Wunderground v.1.15,2013-01-18 17:24:00,
2013-01-18 11:29:00,55.5,35.0,30.46,South,173,8.0,8.0,46,0.00,,,0.00,Wunderground v.1.15,2013-01-18 17:29:00,
2013-01-18 11:39:00,56.1,35.0,30.45,South,178,7.0,7.0,45,0.00,,,0.00,Wunderground v.1.15,2013-01-18 17:39:00,
2013-01-18 11:44:00,56.4,35.3,30.45,South,179,7.0,7.0,45,0.00,,,0.00,Wunderground v.1.15,2013-01-18 17:44:00,
2013-01-18 11:49:00,57.1,35.4,30.44,South,171,5.0,7.0,44,0.00,,,0.00,Wunderground v.1.15,2013-01-18 17:49:00,
2013-01-18 11:59:00,57.5,34.6,30.43,South,169,8.0,9.0,42,0.00,,,0.00,Wunderground v.1.15,2013-01-18 17:59:00,
2013-01-18 12:09:00,58.2,35.2,30.42,SSE,166,7.0,7.0,42,0.00,,,0.00,Wunderground v.1.15,2013-01-18 18:09:00,
2013-01-18 12:19:00,59.4,35.1,30.41,SSW,194,5.0,5.0,40,0.00,,,0.00,Wunderground v.1.15,2013-01-18 18:19:00,
2013-01-18 12:24:00,59.6,34.6,30.41,SSE,167,6.0,8.0,39,0.00,,,0.00,Wunderground v.1.15,2013-01-18 18:24:00,
2013-01-18 12:29:00,59.6,34.6,30.41,SSE,165,8.0,11.0,39,0.00,,,0.00,Wunderground v.1.15,2013-01-18 18:29:00,
2013-01-18 12:39:00,59.8,34.8,30.40,South,169,8.0,8.0,39,0.00,,,0.00,Wunderground v.1.15,2013-01-18 18:39:00,
2013-01-18 12:44:00,59.7,34.0,30.40,SSE,156,8.0,8.0,38,0.00,,,0.00,Wunderground v.1.15,2013-01-18 18:44:00,
2013-01-18 12:49:00,60.1,35.0,30.39,South,190,8.0,8.0,39,0.00,,,0.00,Wunderground v.1.15,2013-01-18 18:49:00,
2013-01-18 12:54:00,60.6,34.2,30.39,SSW,209,5.0,8.0,37,0.00,,,0.00,Wunderground v.1.15,2013-01-18 18:54:00,
2013-01-18 12:59:00,60.9,34.4,30.39,South,175,5.0,7.0,37,0.00,,,0.00,Wunderground v.1.15,2013-01-18 18:59:00,
2013-01-18 13:04:00,60.7,33.6,30.38,SSE,161,8.0,8.0,36,0.00,,,0.00,Wunderground v.1.15,2013-01-18 19:04:00,
2013-01-18 13:14:00,60.7,34.3,30.37,SSE,164,7.0,9.0,37,0.00,,,0.00,Wunderground v.1.15,2013-01-18 19:14:00,
2013-01-18 13:19:00,60.7,33.6,30.37,SSE,162,8.0,8.0,36,0.00,,,0.00,Wunderground v.1.15,2013-01-18 19:19:00,
2013-01-18 13:29:00,61.6,34.4,30.36,South,190,5.0,5.0,36,0.00,,,0.00,Wunderground v.1.15,2013-01-18 19:29:00,
2013-01-18 13:34:00,61.6,33.7,30.36,SSE,167,7.0,7.0,35,0.00,,,0.00,Wunderground v.1.15,2013-01-18 19:34:00,
2013-01-18 13:44:00,61.7,33.7,30.36,South,187,6.0,7.0,35,0.00,,,0.00,Wunderground v.1.15,2013-01-18 19:44:00,
2013-01-18 13:49:00,61.8,33.8,30.35,South,180,5.0,5.0,35,0.00,,,0.00,Wunderground v.1.15,2013-01-18 19:49:00,
2013-01-18 13:59:00,62.0,33.3,30.35,South,173,7.0,7.0,34,0.00,,,0.00,Wunderground v.1.15,2013-01-18 19:59:00,
2013-01-18 14:04:00,62.1,34.1,30.34,SW,225,6.0,9.0,35,0.00,,,0.00,Wunderground v.1.15,2013-01-18 20:04:00,
2013-01-18 14:09:00,62.2,33.5,30.34,SSE,161,5.0,7.0,34,0.00,,,0.00,Wunderground v.1.15,2013-01-18 20:09:00,
2013-01-18 14:19:00,62.4,33.6,30.34,South,180,6.0,6.0,34,0.00,,,0.00,Wunderground v.1.15,2013-01-18 20:19:00,
2013-01-18 14:24:00,62.4,34.4,30.34,SSE,163,5.0,6.0,35,0.00,,,0.00,Wunderground v.1.15,2013-01-18 20:24:00,
2013-01-18 14:29:00,62.9,34.1,30.33,South,191,4.0,8.0,34,0.00,,,0.00,Wunderground v.1.15,2013-01-18 20:29:00,
2013-01-18 14:34:00,63.0,33.4,30.33,South,170,4.0,8.0,33,0.00,,,0.00,Wunderground v.1.15,2013-01-18 20:34:00,
2013-01-18 14:44:00,62.4,33.6,30.33,South,169,8.0,8.0,34,0.00,,,0.00,Wunderground v.1.15,2013-01-18 20:44:00,
2013-01-18 14:54:00,62.9,34.1,30.33,SSE,162,5.0,5.0,34,0.00,,,0.00,Wunderground v.1.15,2013-01-18 20:54:00,
2013-01-18 14:59:00,63.2,33.6,30.33,SSE,165,4.0,4.0,33,0.00,,,0.00,Wunderground v.1.15,2013-01-18 20:59:00,
2013-01-18 15:09:00,63.2,33.6,30.32,SW,216,5.0,5.0,33,0.00,,,0.00,Wunderground v.1.15,2013-01-18 21:09:00,
2013-01-18 15:14:00,63.2,33.6,30.32,SSE,163,5.0,5.0,33,0.00,,,0.00,Wunderground v.1.15,2013-01-18 21:14:00,
2013-01-18 15:19:00,63.1,33.5,30.32,SSE,163,6.0,6.0,33,0.00,,,0.00,Wunderground v.1.15,2013-01-18 21:19:00,
2013-01-18 15:24:00,63.1,32.7,30.32,South,179,5.0,8.0,32,0.00,,,0.00,Wunderground v.1.15,2013-01-18 21:24:00,
2013-01-18 15:29:00,62.8,33.2,30.32,SE,136,6.0,6.0,33,0.00,,,0.00,Wunderground v.1.15,2013-01-18 21:29:00,
2013-01-18 15:39:00,62.9,33.3,30.32,SSE,165,6.0,6.0,33,0.00,,,0.00,Wunderground v.1.15,2013-01-18 21:39:00,
2013-01-18 15:44:00,63.0,33.4,30.31,SSE,167,5.0,6.0,33,0.00,,,0.00,Wunderground v.1.15,2013-01-18 21:44:00,
2013-01-18 15:49:00,63.2,32.8,30.31,South,186,4.0,4.0,32,0.00,,,0.00,Wunderground v.1.15,2013-01-18 21:49:00,
2013-01-18 15:54:00,63.2,33.6,30.31,South,185,4.0,4.0,33,0.00,,,0.00,Wunderground v.1.15,2013-01-18 21:54:00,
2013-01-18 16:04:00,62.9,33.3,30.31,SW,227,5.0,6.0,33,0.00,,,0.00,Wunderground v.1.15,2013-01-18 22:04:00,
2013-01-18 16:09:00,63.1,33.5,30.30,SW,225,4.0,4.0,33,0.00,,,0.00,Wunderground v.1.15,2013-01-18 22:09:00,
2013-01-18 16:14:00,62.9,32.6,30.30,SW,215,4.0,5.0,32,0.00,,,0.00,Wunderground v.1.15,2013-01-18 22:14:00,
2013-01-18 16:19:00,62.6,33.1,30.30,South,182,4.0,4.0,33,0.00,,,0.00,Wunderground v.1.15,2013-01-18 22:19:00,
2013-01-18 16:24:00,62.4,32.9,30.30,South,182,4.0,4.0,33,0.00,,,0.00,Wunderground v.1.15,2013-01-18 22:24:00,
2013-01-18 16:29:00,62.4,33.6,30.30,SSE,164,4.0,4.0,34,0.00,,,0.00,Wunderground v.1.15,2013-01-18 22:29:00,
2013-01-18 16:39:00,62.2,33.5,30.30,SSE,165,3.0,3.0,34,0.00,,,0.00,Wunderground v.1.15,2013-01-18 22:39:00,
2013-01-18 16:44:00,62.0,33.3,30.30,SSE,167,3.0,4.0,34,0.00,,,0.00,Wunderground v.1.15,2013-01-18 22:44:00,
2013-01-18 16:49:00,61.8,33.8,30.30,SSE,167,3.0,3.0,35,0.00,,,0.00,Wunderground v.1.15,2013-01-18 22:49:00,
2013-01-18 16:54:00,61.6,33.7,30.30,SSE,167,3.0,3.0,35,0.00,,,0.00,Wunderground v.1.15,2013-01-18 22:54:00,
2013-01-18 17:04:00,61.2,33.3,30.30,SSE,161,6.0,8.0,35,0.00,,,0.00,Wunderground v.1.15,2013-01-18 23:04:00,
2013-01-18 17:09:00,61.0,33.1,30.30,SSE,161,6.0,6.0,35,0.00,,,0.00,Wunderground v.1.15,2013-01-18 23:09:00,
2013-01-18 17:14:00,60.8,33.7,30.30,SSE,162,4.0,6.0,36,0.00,,,0.00,Wunderground v.1.15,2013-01-18 23:14:00,
2013-01-18 17:24:00,60.3,33.2,30.30,SSE,162,4.0,8.0,36,0.00,,,0.00,Wunderground v.1.15,2013-01-18 23:24:00,
2013-01-18 17:29:00,60.1,33.0,30.30,SSE,162,3.0,3.0,36,0.00,,,0.00,Wunderground v.1.15,2013-01-18 23:29:00,
2013-01-18 17:34:00,59.9,33.5,30.30,SSE,163,3.0,3.0,37,0.00,,,0.00,Wunderground v.1.15,2013-01-18 23:34:00,
2013-01-18 17:44:00,59.3,34.3,30.30,SSE,162,5.0,6.0,39,0.00,,,0.00,Wunderground v.1.15,2013-01-18 23:44:00,
2013-01-18 17:49:00,58.9,34.6,30.30,SSE,162,4.0,4.0,40,0.00,,,0.00,Wunderground v.1.15,2013-01-18 23:49:00,
2013-01-18 17:54:00,58.5,34.2,30.30,SSE,162,4.0,4.0,40,0.00,,,0.00,Wunderground v.1.15,2013-01-18 23:54:00,
2013-01-18 18:04:00,57.8,34.2,30.30,SSE,162,4.0,4.0,41,0.00,,,0.00,Wunderground v.1.15,2013-01-19 00:04:00,
2013-01-18 18:09:00,57.5,34.6,30.30,SSE,162,4.0,5.0,42,0.00,,,0.00,Wunderground v.1.15,2013-01-19 00:09:00,
2013-01-18 18:14:00,57.2,34.3,30.30,SSE,162,4.0,4.0,42,0.00,,,0.00,Wunderground v.1.15,2013-01-19 00:14:00,
2013-01-18 18:19:00,57.0,34.7,30.30,SSE,162,4.0,4.0,43,0.00,,,0.00,Wunderground v.1.15,2013-01-19 00:19:00,
2013-01-18 18:24:00,56.7,34.4,30.30,SSE,162,3.0,3.0,43,0.00,,,0.00,Wunderground v.1.15,2013-01-19 00:24:00,
2013-01-18 18:29:00,56.4,34.7,30.30,SSE,162,2.0,5.0,44,0.00,,,0.00,Wunderground v.1.15,2013-01-19 00:29:00,
2013-01-18 18:39:00,55.9,34.8,30.30,SSE,162,4.0,5.0,45,0.00,,,0.00,Wunderground v.1.15,2013-01-19 00:39:00,
2013-01-18 18:44:00,55.7,35.2,30.30,SSE,162,3.0,3.0,46,0.00,,,0.00,Wunderground v.1.15,2013-01-19 00:44:00,
2013-01-18 18:49:00,55.5,35.6,30.30,SSE,162,3.0,6.0,47,0.00,,,0.00,Wunderground v.1.15,2013-01-19 00:49:00,
2013-01-18 18:59:00,55.1,35.7,30.30,SSE,162,5.0,5.0,48,0.00,,,0.00,Wunderground v.1.15,2013-01-19 00:59:00,
2013-01-18 19:04:00,54.9,35.6,30.30,SSE,162,4.0,5.0,48,0.00,,,0.00,Wunderground v.1.15,2013-01-19 01:04:00,
2013-01-18 19:09:00,54.7,35.9,30.30,SSE,162,3.0,4.0,49,0.00,,,0.00,Wunderground v.1.15,2013-01-19 01:09:00,
2013-01-18 19:14:00,54.5,35.7,30.30,SSE,162,3.0,5.0,49,0.00,,,0.00,Wunderground v.1.15,2013-01-19 01:14:00,
2013-01-18 19:19:00,54.2,35.9,30.30,SSE,162,4.0,4.0,50,0.00,,,0.00,Wunderground v.1.15,2013-01-19 01:19:00,
2013-01-18 19:29:00,53.8,36.1,30.30,SSE,162,4.0,5.0,51,0.00,,,0.00,Wunderground v.1.15,2013-01-19 01:29:00,
2013-01-18 19:34:00,53.6,35.9,30.30,SSE,162,5.0,5.0,51,0.00,,,0.00,Wunderground v.1.15,2013-01-19 01:34:00,
2013-01-18 19:39:00,53.5,35.8,30.30,SSE,161,6.0,6.0,51,0.00,,,0.00,Wunderground v.1.15,2013-01-19 01:39:00,
2013-01-18 19:44:00,53.5,36.3,30.30,SSE,161,6.0,6.0,52,0.00,,,0.00,Wunderground v.1.15,2013-01-19 01:44:00,
2013-01-18 19:54:00,53.3,36.1,30.30,SSE,161,7.0,7.0,52,0.00,,,0.00,Wunderground v.1.15,2013-01-19 01:54:00,
2013-01-18 19:59:00,53.2,36.0,30.30,SSE,161,7.0,7.0,52,0.00,,,0.00,Wunderground v.1.15,2013-01-19 01:59:00,
2013-01-18 20:09:00,52.9,36.2,30.30,SSE,161,7.0,7.0,53,0.00,,,0.00,Wunderground v.1.15,2013-01-19 02:09:00,
2013-01-18 20:14:00,52.7,36.0,30.30,SSE,161,6.0,7.0,53,0.00,,,0.00,Wunderground v.1.15,2013-01-19 02:14:00,
2013-01-18 20:19:00,52.6,35.9,30.30,SSE,161,6.0,6.0,53,0.00,,,0.00,Wunderground v.1.15,2013-01-19 02:19:00,
2013-01-18 20:24:00,52.4,36.2,30.30,SSE,161,5.0,6.0,54,0.00,,,0.00,Wunderground v.1.15,2013-01-19 02:24:00,
2013-01-18 20:29:00,52.2,36.0,30.30,SSE,161,5.0,5.0,54,0.00,,,0.00,Wunderground v.1.15,2013-01-19 02:29:00,
2013-01-18 20:39:00,51.9,36.2,30.29,SSE,161,5.0,5.0,55,0.00,,,0.00,Wunderground v.1.15,2013-01-19 02:39:00,
2013-01-18 20:44:00,51.7,36.0,30.29,SSE,161,4.0,5.0,55,0.00,,,0.00,Wunderground v.1.15,2013-01-19 02:44:00,
2013-01-18 20:49:00,51.5,36.3,30.29,SSE,161,3.0,5.0,56,0.00,,,0.00,Wunderground v.1.15,2013-01-19 02:49:00,
2013-01-18 20:54:00,51.4,36.2,30.29,SSE,161,3.0,5.0,56,0.00,,,0.00,Wunderground v.1.15,2013-01-19 02:54:00,
2013-01-18 20:59:00,51.2,36.0,30.29,SSE,161,2.0,3.0,56,0.00,,,0.00,Wunderground v.1.15,2013-01-19 02:59:00,
2013-01-18 21:04:00,51.1,35.9,30.29,SSE,161,2.0,3.0,56,0.00,,,0.00,Wunderground v.1.15,2013-01-19 03:04:00,
2013-01-18 21:09:00,51.0,36.3,30.29,SSE,161,2.0,2.0,57,0.00,,,0.00,Wunderground v.1.15,2013-01-19 03:09:00,
2013-01-18 21:14:00,50.9,36.2,30.29,SSE,161,2.0,3.0,57,0.00,,,0.00,Wunderground v.1.15,2013-01-19 03:14:00,
2013-01-18 21:19:00,50.8,36.1,30.29,SSE,161,1.0,3.0,57,0.00,,,0.00,Wunderground v.1.15,2013-01-19 03:19:00,
2013-01-18 21:29:00,50.5,36.3,30.29,SSE,161,2.0,3.0,58,0.00,,,0.00,Wunderground v.1.15,2013-01-19 03:29:00,
2013-01-18 21:34:00,50.4,36.2,30.28,SSE,161,2.0,3.0,58,0.00,,,0.00,Wunderground v.1.15,2013-01-19 03:34:00,
2013-01-18 21:39:00,50.2,36.0,30.28,SSE,161,1.0,3.0,58,0.00,,,0.00,Wunderground v.1.15,2013-01-19 03:39:00,
2013-01-18 21:44:00,50.1,36.3,30.28,SSE,161,1.0,3.0,59,0.00,,,0.00,Wunderground v.1.15,2013-01-19 03:44:00,
2013-01-18 21:49:00,49.8,36.0,30.28,SSE,161,1.0,6.0,59,0.00,,,0.00,Wunderground v.1.15,2013-01-19 03:49:00,
2013-01-18 21:59:00,49.5,36.2,30.28,SSE,161,3.0,3.0,60,0.00,,,0.00,Wunderground v.1.15,2013-01-19 03:59:00,
2013-01-18 22:04:00,49.5,36.2,30.27,SSE,161,3.0,4.0,60,0.00,,,0.00,Wunderground v.1.15,2013-01-19 04:04:00,
2013-01-18 22:09:00,49.3,36.0,30.28,SSE,161,2.0,2.0,60,0.00,,,0.00,Wunderground v.1.15,2013-01-19 04:09:00,
2013-01-18 22:14:00,49.2,36.3,30.27,SSE,161,2.0,3.0,61,0.00,,,0.00,Wunderground v.1.15,2013-01-19 04:14:00,
2013-01-18 22:19:00,49.0,36.1,30.27,SSE,161,2.0,3.0,61,0.00,,,0.00,Wunderground v.1.15,2013-01-19 04:19:00,
2013-01-18 22:29:00,48.8,35.9,30.27,SSE,161,3.0,5.0,61,0.00,,,0.00,Wunderground v.1.15,2013-01-19 04:29:00,
2013-01-18 22:34:00,48.8,36.4,30.27,SSE,161,4.0,6.0,62,0.00,,,0.00,Wunderground v.1.15,2013-01-19 04:34:00,
2013-01-18 22:39:00,48.9,36.0,30.27,SSE,163,4.0,4.0,61,0.00,,,0.00,Wunderground v.1.15,2013-01-19 04:39:00,
2013-01-18 22:44:00,48.8,35.9,30.27,SSE,163,3.0,4.0,61,0.00,,,0.00,Wunderground v.1.15,2013-01-19 04:44:00,
2013-01-18 22:49:00,48.8,35.9,30.27,SSE,163,2.0,2.0,61,0.00,,,0.00,Wunderground v.1.15,2013-01-19 04:49:00,
2013-01-18 22:54:00,48.7,35.8,30.26,SSE,163,3.0,5.0,61,0.00,,,0.00,Wunderground v.1.15,2013-01-19 04:54:00,
2013-01-18 23:04:00,48.6,35.7,30.26,SSE,163,4.0,4.0,61,0.00,,,0.00,Wunderground v.1.15,2013-01-19 05:04:00,
2013-01-18 23:09:00,48.5,35.7,30.26,SSE,163,4.0,5.0,61,0.00,,,0.00,Wunderground v.1.15,2013-01-19 05:09:00,
2013-01-18 23:14:00,48.5,35.7,30.26,SSE,163,4.0,5.0,61,0.00,,,0.00,Wunderground v.1.15,2013-01-19 05:14:00,
2013-01-18 23:19:00,48.5,35.7,30.25,SSE,163,4.0,4.0,61,0.00,,,0.00,Wunderground v.1.15,2013-01-19 05:19:00,
2013-01-18 23:24:00,48.4,35.6,30.25,SSE,163,4.0,6.0,61,0.00,,,0.00,Wunderground v.1.15,2013-01-19 05:24:00,
2013-01-18 23:29:00,48.6,35.7,30.25,SSE,163,5.0,5.0,61,0.00,,,0.00,Wunderground v.1.15,2013-01-19 05:29:00,
2013-01-18 23:34:00,48.7,35.8,30.25,SSE,163,5.0,5.0,61,0.00,,,0.00,Wunderground v.1.15,2013-01-19 05:34:00,
2013-01-18 23:39:00,48.8,35.5,30.25,SSE,163,4.0,4.0,60,0.00,,,0.00,Wunderground v.1.15,2013-01-19 05:39:00,
2013-01-18 23:49:00,48.8,35.5,30.25,SSE,163,4.0,6.0,60,0.00,,,0.00,Wunderground v.1.15,2013-01-19 05:49:00,
2013-01-18 23:54:00,48.9,35.6,30.25,SSE,163,5.0,6.0,60,0.00,,,0.00,Wunderground v.1.15,2013-01-19 05:54:00,
2013-01-18 23:59:00,48.9,35.2,30.25,SSE,163,4.0,9.0,59,0.00,,,0.00,Wunderground v.1.15,2013-01-19 05:59:00,